sensor_id;sensor_type;location;lat;lon;timestamp;pressure;altitude;pressure_sealevel;temperature;humidity
22872;BME280;11603;44.910;8.630;2022-07-06T00:01:48;100434.81;;;28.32;100.00
22872;BME280;11603;44.910;8.630;2022-07-06T00:04:13;100426.34;;;28.01;100.00
22872;BME280;11603;44.910;8.630;2022-07-06T00:06:39;100424.47;;;27.81;100.00
22872;BME280;11603;44.910;8.630;2022-07-06T00:09:06;100428.28;;;27.67;100.00
22872;BME280;11603;44.910;8.630;2022-07-06T00:11:32;100430.56;;;27.51;100.00
22872;BME280;11603;44.910;8.630;2022-07-06T00:13:57;100429.06;;;27.42;100.00
22872;BME280;11603;44.910;8.630;2022-07-06T00:16:23;100425.00;;;27.31;100.00
22872;BME280;11603;44.910;8.630;2022-07-06T00:18:49;100421.19;;;27.25;100.00
22872;BME280;11603;44.910;8.630;2022-07-06T00:21:15;100422.28;;;27.44;100.00
22872;BME280;11603;44.910;8.630;2022-07-06T00:23:40;100424.22;;;27.50;100.00
22872;BME280;11603;44.910;8.630;2022-07-06T00:26:06;100434.31;;;27.43;100.00
22872;BME280;11603;44.910;8.630;2022-07-06T00:28:32;100432.88;;;27.47;100.00
22872;BME280;11603;44.910;8.630;2022-07-06T00:30:57;100433.44;;;27.29;100.00
22872;BME280;11603;44.910;8.630;2022-07-06T00:33:23;100425.38;;;27.15;100.00
22872;BME280;11603;44.910;8.630;2022-07-06T00:35:49;100430.84;;;27.08;100.00
22872;BME280;11603;44.910;8.630;2022-07-06T00:38:15;100424.53;;;27.14;100.00
22872;BME280;11603;44.910;8.630;2022-07-06T00:40:41;100425.63;;;27.33;100.00
22872;BME280;11603;44.910;8.630;2022-07-06T00:43:06;100427.38;;;27.47;100.00
22872;BME280;11603;44.910;8.630;2022-07-06T00:45:33;100421.69;;;27.75;100.00
22872;BME280;11603;44.910;8.630;2022-07-06T00:47:58;100410.28;;;27.91;100.00
22872;BME280;11603;44.910;8.630;2022-07-06T00:50:24;100421.28;;;27.98;100.00
22872;BME280;11603;44.910;8.630;2022-07-06T00:52:55;100409.66;;;27.76;100.00
22872;BME280;11603;44.910;8.630;2022-07-06T00:55:29;100416.81;;;27.64;100.00
22872;BME280;11603;44.910;8.630;2022-07-06T00:57:55;100410.50;;;27.70;100.00
22872;BME280;11603;44.910;8.630;2022-07-06T01:00:24;100404.78;;;27.58;100.00
22872;BME280;11603;44.910;8.630;2022-07-06T01:02:50;100404.38;;;27.61;100.00
22872;BME280;11603;44.910;8.630;2022-07-06T01:05:17;100409.03;;;27.67;100.00
22872;BME280;11603;44.910;8.630;2022-07-06T01:07:45;100417.28;;;27.67;100.00
22872;BME280;11603;44.910;8.630;2022-07-06T01:10:12;100411.34;;;27.70;100.00
22872;BME280;11603;44.910;8.630;2022-07-06T01:12:41;100411.13;;;27.72;100.00
22872;BME280;11603;44.910;8.630;2022-07-06T01:15:11;100419.13;;;27.47;100.00
22872;BME280;11603;44.910;8.630;2022-07-06T01:17:39;100427.72;;;27.18;100.00
22872;BME280;11603;44.910;8.630;2022-07-06T01:22:34;100424.16;;;26.76;100.00
22872;BME280;11603;44.910;8.630;2022-07-06T01:24:59;100422.97;;;26.92;100.00
22872;BME280;11603;44.910;8.630;2022-07-06T01:27:25;100418.03;;;26.81;100.00
22872;BME280;11603;44.910;8.630;2022-07-06T01:29:51;100428.16;;;26.74;100.00
22872;BME280;11603;44.910;8.630;2022-07-06T01:32:17;100418.38;;;26.65;100.00
22872;BME280;11603;44.910;8.630;2022-07-06T01:34:42;100426.03;;;26.76;100.00
22872;BME280;11603;44.910;8.630;2022-07-06T01:37:08;100426.22;;;26.68;100.00
22872;BME280;11603;44.910;8.630;2022-07-06T01:39:33;100434.66;;;26.66;100.00
22872;BME280;11603;44.910;8.630;2022-07-06T01:41:59;100442.66;;;26.61;100.00
22872;BME280;11603;44.910;8.630;2022-07-06T01:44:24;100449.50;;;26.44;100.00
22872;BME280;11603;44.910;8.630;2022-07-06T01:46:51;100460.28;;;26.45;100.00
22872;BME280;11603;44.910;8.630;2022-07-06T01:49:17;100446.28;;;26.68;100.00
22872;BME280;11603;44.910;8.630;2022-07-06T01:51:42;100441.03;;;26.73;100.00
22872;BME280;11603;44.910;8.630;2022-07-06T01:54:08;100443.69;;;26.60;100.00
22872;BME280;11603;44.910;8.630;2022-07-06T01:56:34;100445.25;;;26.69;100.00
22872;BME280;11603;44.910;8.630;2022-07-06T01:59:02;100454.75;;;26.39;100.00
22872;BME280;11603;44.910;8.630;2022-07-06T02:01:28;100455.84;;;26.44;100.00
22872;BME280;11603;44.910;8.630;2022-07-06T02:03:54;100445.25;;;26.35;100.00
22872;BME280;11603;44.910;8.630;2022-07-06T02:06:20;100442.59;;;26.48;100.00
22872;BME280;11603;44.910;8.630;2022-07-06T02:08:48;100441.75;;;26.54;100.00
22872;BME280;11603;44.910;8.630;2022-07-06T02:11:13;100453.53;;;26.41;100.00
22872;BME280;11603;44.910;8.630;2022-07-06T02:13:40;100447.31;;;26.26;100.00
22872;BME280;11603;44.910;8.630;2022-07-06T02:16:08;100453.50;;;26.13;100.00
22872;BME280;11603;44.910;8.630;2022-07-06T02:18:35;100450.94;;;26.12;100.00
22872;BME280;11603;44.910;8.630;2022-07-06T02:21:00;100449.75;;;26.21;100.00
22872;BME280;11603;44.910;8.630;2022-07-06T02:23:26;100456.84;;;26.09;100.00
22872;BME280;11603;44.910;8.630;2022-07-06T02:25:52;100447.66;;;25.95;100.00
22872;BME280;11603;44.910;8.630;2022-07-06T02:28:20;100447.16;;;25.85;100.00
22872;BME280;11603;44.910;8.630;2022-07-06T02:30:45;100450.78;;;25.64;100.00
22872;BME280;11603;44.910;8.630;2022-07-06T02:33:11;100455.94;;;25.38;100.00
22872;BME280;11603;44.910;8.630;2022-07-06T02:35:37;100458.47;;;25.04;100.00
22872;BME280;11603;44.910;8.630;2022-07-06T02:38:08;100464.94;;;24.52;100.00
22872;BME280;11603;44.910;8.630;2022-07-06T02:40:33;100473.31;;;24.51;100.00
22872;BME280;11603;44.910;8.630;2022-07-06T02:42:59;100469.16;;;24.40;100.00
22872;BME280;11603;44.910;8.630;2022-07-06T02:45:24;100473.47;;;24.20;100.00
22872;BME280;11603;44.910;8.630;2022-07-06T02:47:50;100477.47;;;24.09;100.00
22872;BME280;11603;44.910;8.630;2022-07-06T02:50:17;100482.44;;;23.91;100.00
22872;BME280;11603;44.910;8.630;2022-07-06T02:52:42;100486.75;;;23.85;100.00
22872;BME280;11603;44.910;8.630;2022-07-06T02:55:09;100496.16;;;23.83;100.00
22872;BME280;11603;44.910;8.630;2022-07-06T02:57:35;100491.25;;;23.78;100.00
22872;BME280;11603;44.910;8.630;2022-07-06T03:00:02;100493.53;;;23.67;100.00
22872;BME280;11603;44.910;8.630;2022-07-06T03:02:30;100511.72;;;23.59;100.00
22872;BME280;11603;44.910;8.630;2022-07-06T03:04:57;100515.03;;;23.70;100.00
22872;BME280;11603;44.910;8.630;2022-07-06T03:07:22;100509.75;;;23.68;100.00
22872;BME280;11603;44.910;8.630;2022-07-06T03:09:48;100505.31;;;23.67;100.00
22872;BME280;11603;44.910;8.630;2022-07-06T03:12:14;100517.22;;;23.74;100.00
22872;BME280;11603;44.910;8.630;2022-07-06T03:14:41;100518.84;;;23.83;100.00
22872;BME280;11603;44.910;8.630;2022-07-06T03:17:08;100508.19;;;23.96;100.00
22872;BME280;11603;44.910;8.630;2022-07-06T03:19:33;100511.97;;;24.10;100.00
22872;BME280;11603;44.910;8.630;2022-07-06T03:21:59;100503.72;;;24.18;100.00
22872;BME280;11603;44.910;8.630;2022-07-06T03:24:25;100508.50;;;24.16;100.00
22872;BME280;11603;44.910;8.630;2022-07-06T03:26:53;100505.47;;;24.11;100.00
22872;BME280;11603;44.910;8.630;2022-07-06T03:29:19;100505.94;;;24.15;100.00
22872;BME280;11603;44.910;8.630;2022-07-06T03:31:46;100506.28;;;24.20;100.00
22872;BME280;11603;44.910;8.630;2022-07-06T03:34:12;100500.06;;;24.26;100.00
22872;BME280;11603;44.910;8.630;2022-07-06T03:36:38;100506.84;;;24.30;100.00
22872;BME280;11603;44.910;8.630;2022-07-06T03:39:05;100514.16;;;24.37;100.00
22872;BME280;11603;44.910;8.630;2022-07-06T03:41:33;100503.69;;;24.56;100.00
22872;BME280;11603;44.910;8.630;2022-07-06T03:43:59;100505.94;;;24.67;100.00
22872;BME280;11603;44.910;8.630;2022-07-06T03:46:25;100504.72;;;24.84;100.00
22872;BME280;11603;44.910;8.630;2022-07-06T03:48:52;100509.66;;;24.88;100.00
22872;BME280;11603;44.910;8.630;2022-07-06T03:51:18;100501.59;;;24.87;100.00
22872;BME280;11603;44.910;8.630;2022-07-06T03:53:44;100505.59;;;24.84;100.00
22872;BME280;11603;44.910;8.630;2022-07-06T03:56:10;100500.50;;;24.96;100.00
22872;BME280;11603;44.910;8.630;2022-07-06T03:58:59;100512.78;;;25.00;100.00
22872;BME280;11603;44.910;8.630;2022-07-06T04:01:26;100515.78;;;25.05;100.00
22872;BME280;11603;44.910;8.630;2022-07-06T04:03:52;100519.72;;;25.03;100.00
22872;BME280;11603;44.910;8.630;2022-07-06T04:06:19;100521.31;;;25.26;100.00
22872;BME280;11603;44.910;8.630;2022-07-06T04:08:45;100519.53;;;25.69;100.00
22872;BME280;11603;44.910;8.630;2022-07-06T04:11:11;100515.91;;;26.33;100.00
22872;BME280;11603;44.910;8.630;2022-07-06T04:13:37;100516.63;;;26.76;100.00
22872;BME280;11603;44.910;8.630;2022-07-06T04:16:05;100525.97;;;27.76;100.00
22872;BME280;11603;44.910;8.630;2022-07-06T04:18:31;100530.22;;;28.64;100.00
22872;BME280;11603;44.910;8.630;2022-07-06T04:20:57;100529.47;;;29.22;100.00
22872;BME280;11603;44.910;8.630;2022-07-06T04:23:24;100530.38;;;29.98;100.00
22872;BME280;11603;44.910;8.630;2022-07-06T04:25:52;100529.41;;;30.85;94.56
22872;BME280;11603;44.910;8.630;2022-07-06T04:28:19;100525.81;;;31.21;89.23
22872;BME280;11603;44.910;8.630;2022-07-06T04:30:45;100521.69;;;31.90;85.65
22872;BME280;11603;44.910;8.630;2022-07-06T04:33:15;100529.28;;;32.59;79.62
22872;BME280;11603;44.910;8.630;2022-07-06T04:35:43;100535.16;;;33.09;76.11
22872;BME280;11603;44.910;8.630;2022-07-06T04:38:09;100544.81;;;33.70;72.50
22872;BME280;11603;44.910;8.630;2022-07-06T04:40:35;100531.69;;;34.44;68.68
22872;BME280;11603;44.910;8.630;2022-07-06T04:43:05;100534.28;;;34.67;66.92
22872;BME280;11603;44.910;8.630;2022-07-06T04:45:30;100529.16;;;34.76;65.70
22872;BME280;11603;44.910;8.630;2022-07-06T04:47:56;100528.00;;;34.72;64.94
22872;BME280;11603;44.910;8.630;2022-07-06T04:50:22;100542.78;;;33.54;68.30
22872;BME280;11603;44.910;8.630;2022-07-06T04:52:49;100548.84;;;32.11;74.48
22872;BME280;11603;44.910;8.630;2022-07-06T04:55:15;100549.53;;;30.92;83.54
22872;BME280;11603;44.910;8.630;2022-07-06T04:57:41;100558.00;;;32.65;75.82
22872;BME280;11603;44.910;8.630;2022-07-06T05:00:07;100553.72;;;34.00;69.57
22872;BME280;11603;44.910;8.630;2022-07-06T05:02:34;100568.16;;;34.02;66.98
22872;BME280;11603;44.910;8.630;2022-07-06T05:04:59;100574.75;;;33.45;68.68
22872;BME280;11603;44.910;8.630;2022-07-06T05:07:25;100584.53;;;33.87;66.77
22872;BME280;11603;44.910;8.630;2022-07-06T05:09:55;100589.28;;;32.77;69.21
22872;BME280;11603;44.910;8.630;2022-07-06T05:12:20;100598.50;;;30.79;79.62
22872;BME280;11603;44.910;8.630;2022-07-06T05:14:46;100603.06;;;29.72;89.48
22872;BME280;11603;44.910;8.630;2022-07-06T05:17:12;100595.78;;;29.27;94.74
22872;BME280;11603;44.910;8.630;2022-07-06T05:19:38;100589.09;;;28.63;100.00
22872;BME280;11603;44.910;8.630;2022-07-06T05:22:04;100593.56;;;28.45;100.00
22872;BME280;11603;44.910;8.630;2022-07-06T05:24:30;100584.66;;;28.23;100.00
22872;BME280;11603;44.910;8.630;2022-07-06T05:26:56;100591.75;;;27.78;100.00
22872;BME280;11603;44.910;8.630;2022-07-06T05:29:22;100588.47;;;27.55;100.00
22872;BME280;11603;44.910;8.630;2022-07-06T05:31:49;100584.66;;;28.56;100.00
22872;BME280;11603;44.910;8.630;2022-07-06T05:34:16;100583.50;;;29.80;100.00
22872;BME280;11603;44.910;8.630;2022-07-06T05:36:41;100576.81;;;30.82;92.47
22872;BME280;11603;44.910;8.630;2022-07-06T05:39:07;100584.78;;;31.33;88.07
22872;BME280;11603;44.910;8.630;2022-07-06T05:41:32;100581.38;;;31.68;85.86
22872;BME280;11603;44.910;8.630;2022-07-06T05:44:01;100587.88;;;31.91;82.41
22872;BME280;11603;44.910;8.630;2022-07-06T05:46:26;100588.72;;;31.92;82.05
22872;BME280;11603;44.910;8.630;2022-07-06T05:48:54;100584.91;;;32.05;80.89
22872;BME280;11603;44.910;8.630;2022-07-06T05:51:39;100593.94;;;31.34;81.47
22872;BME280;11603;44.910;8.630;2022-07-06T05:54:05;100605.16;;;30.96;82.94
22872;BME280;11603;44.910;8.630;2022-07-06T05:56:31;100598.81;;;29.76;87.43
22872;BME280;11603;44.910;8.630;2022-07-06T05:58:59;100602.81;;;29.16;93.82
22872;BME280;11603;44.910;8.630;2022-07-06T06:01:25;100613.63;;;29.11;96.29
22872;BME280;11603;44.910;8.630;2022-07-06T06:04:00;100633.16;;;28.96;97.75
22872;BME280;11603;44.910;8.630;2022-07-06T06:06:26;100632.75;;;28.86;99.55
22872;BME280;11603;44.910;8.630;2022-07-06T06:08:52;100638.50;;;28.78;99.65
22872;BME280;11603;44.910;8.630;2022-07-06T06:11:18;100640.16;;;28.66;100.00
22872;BME280;11603;44.910;8.630;2022-07-06T06:13:43;100645.00;;;28.64;100.00
22872;BME280;11603;44.910;8.630;2022-07-06T06:16:09;100653.91;;;28.46;100.00
22872;BME280;11603;44.910;8.630;2022-07-06T06:18:36;100648.56;;;28.32;100.00
22872;BME280;11603;44.910;8.630;2022-07-06T06:21:01;100656.41;;;28.15;100.00
22872;BME280;11603;44.910;8.630;2022-07-06T06:23:27;100648.84;;;27.83;100.00
22872;BME280;11603;44.910;8.630;2022-07-06T06:25:52;100653.81;;;27.59;100.00
22872;BME280;11603;44.910;8.630;2022-07-06T06:28:18;100655.28;;;27.55;100.00
22872;BME280;11603;44.910;8.630;2022-07-06T06:30:43;100665.53;;;27.40;100.00
22872;BME280;11603;44.910;8.630;2022-07-06T06:33:10;100674.22;;;27.44;100.00
22872;BME280;11603;44.910;8.630;2022-07-06T06:35:36;100682.03;;;27.40;100.00
22872;BME280;11603;44.910;8.630;2022-07-06T06:38:02;100674.44;;;27.42;100.00
22872;BME280;11603;44.910;8.630;2022-07-06T06:40:28;100685.59;;;27.75;100.00
22872;BME280;11603;44.910;8.630;2022-07-06T06:42:53;100678.69;;;27.86;100.00
22872;BME280;11603;44.910;8.630;2022-07-06T06:45:19;100682.34;;;27.58;100.00
22872;BME280;11603;44.910;8.630;2022-07-06T06:47:45;100680.16;;;27.13;100.00
22872;BME280;11603;44.910;8.630;2022-07-06T06:50:10;100676.53;;;27.12;100.00
22872;BME280;11603;44.910;8.630;2022-07-06T06:52:36;100684.19;;;27.17;100.00
22872;BME280;11603;44.910;8.630;2022-07-06T06:55:01;100686.19;;;27.29;100.00
22872;BME280;11603;44.910;8.630;2022-07-06T06:57:27;100689.84;;;27.43;100.00
22872;BME280;11603;44.910;8.630;2022-07-06T06:59:54;100690.34;;;27.53;100.00
22872;BME280;11603;44.910;8.630;2022-07-06T07:02:19;100694.75;;;27.48;100.00
22872;BME280;11603;44.910;8.630;2022-07-06T07:04:45;100701.59;;;27.58;100.00
22872;BME280;11603;44.910;8.630;2022-07-06T07:07:10;100702.25;;;27.60;100.00
22872;BME280;11603;44.910;8.630;2022-07-06T07:09:36;100706.56;;;27.76;100.00
22872;BME280;11603;44.910;8.630;2022-07-06T07:12:01;100710.34;;;27.75;100.00
22872;BME280;11603;44.910;8.630;2022-07-06T07:14:27;100710.00;;;27.50;100.00
22872;BME280;11603;44.910;8.630;2022-07-06T07:16:54;100709.31;;;27.42;100.00
22872;BME280;11603;44.910;8.630;2022-07-06T07:19:19;100716.34;;;27.51;100.00
22872;BME280;11603;44.910;8.630;2022-07-06T07:21:45;100729.81;;;27.73;100.00
22872;BME280;11603;44.910;8.630;2022-07-06T07:24:10;100719.34;;;27.97;100.00
22872;BME280;11603;44.910;8.630;2022-07-06T07:26:36;100722.69;;;28.40;100.00
22872;BME280;11603;44.910;8.630;2022-07-06T07:29:02;100723.78;;;28.58;100.00
22872;BME280;11603;44.910;8.630;2022-07-06T07:31:27;100724.00;;;28.70;100.00
22872;BME280;11603;44.910;8.630;2022-07-06T07:33:53;100732.53;;;28.75;100.00
22872;BME280;11603;44.910;8.630;2022-07-06T07:36:22;100733.38;;;28.76;100.00
22872;BME280;11603;44.910;8.630;2022-07-06T07:38:48;100739.97;;;28.88;100.00
22872;BME280;11603;44.910;8.630;2022-07-06T07:41:14;100745.03;;;28.91;100.00
22872;BME280;11603;44.910;8.630;2022-07-06T07:43:39;100750.91;;;28.61;100.00
22872;BME280;11603;44.910;8.630;2022-07-06T07:46:05;100748.34;;;28.60;100.00
22872;BME280;11603;44.910;8.630;2022-07-06T07:48:30;100747.78;;;28.78;100.00
22872;BME280;11603;44.910;8.630;2022-07-06T07:50:56;100742.50;;;29.02;100.00
22872;BME280;11603;44.910;8.630;2022-07-06T07:53:21;100743.03;;;28.45;100.00
22872;BME280;11603;44.910;8.630;2022-07-06T07:55:47;100732.19;;;28.31;100.00
22872;BME280;11603;44.910;8.630;2022-07-06T07:58:12;100740.44;;;28.24;100.00
22872;BME280;11603;44.910;8.630;2022-07-06T08:00:39;100740.91;;;28.47;100.00
22872;BME280;11603;44.910;8.630;2022-07-06T08:03:04;100746.44;;;28.60;100.00
22872;BME280;11603;44.910;8.630;2022-07-06T08:05:30;100753.16;;;28.38;100.00
22872;BME280;11603;44.910;8.630;2022-07-06T08:07:56;100754.44;;;28.36;100.00
22872;BME280;11603;44.910;8.630;2022-07-06T08:10:22;100761.16;;;28.27;100.00
22872;BME280;11603;44.910;8.630;2022-07-06T08:12:48;100764.00;;;28.53;100.00
22872;BME280;11603;44.910;8.630;2022-07-06T08:15:13;100754.47;;;28.49;100.00
22872;BME280;11603;44.910;8.630;2022-07-06T08:17:38;100756.44;;;28.75;100.00
22872;BME280;11603;44.910;8.630;2022-07-06T08:20:05;100753.72;;;28.94;100.00
22872;BME280;11603;44.910;8.630;2022-07-06T08:22:31;100759.69;;;29.04;100.00
22872;BME280;11603;44.910;8.630;2022-07-06T08:24:57;100763.66;;;28.76;100.00
22872;BME280;11603;44.910;8.630;2022-07-06T08:27:23;100759.88;;;28.22;100.00
22872;BME280;11603;44.910;8.630;2022-07-06T08:29:49;100758.66;;;28.38;100.00
22872;BME280;11603;44.910;8.630;2022-07-06T08:32:14;100766.22;;;28.77;100.00
22872;BME280;11603;44.910;8.630;2022-07-06T08:34:40;100771.50;;;28.85;100.00
22872;BME280;11603;44.910;8.630;2022-07-06T08:37:05;100765.41;;;29.10;100.00
22872;BME280;11603;44.910;8.630;2022-07-06T08:39:31;100755.44;;;29.09;100.00
22872;BME280;11603;44.910;8.630;2022-07-06T08:41:58;100755.00;;;29.25;100.00
22872;BME280;11603;44.910;8.630;2022-07-06T08:44:24;100754.34;;;29.23;100.00
22872;BME280;11603;44.910;8.630;2022-07-06T08:46:51;100761.56;;;29.37;100.00
22872;BME280;11603;44.910;8.630;2022-07-06T08:49:18;100762.66;;;29.36;100.00
22872;BME280;11603;44.910;8.630;2022-07-06T08:51:44;100765.38;;;29.03;100.00
22872;BME280;11603;44.910;8.630;2022-07-06T08:54:11;100762.19;;;29.06;100.00
22872;BME280;11603;44.910;8.630;2022-07-06T08:56:38;100757.97;;;29.17;100.00
22872;BME280;11603;44.910;8.630;2022-07-06T08:59:03;100760.06;;;29.21;100.00
22872;BME280;11603;44.910;8.630;2022-07-06T09:01:29;100766.03;;;29.38;100.00
22872;BME280;11603;44.910;8.630;2022-07-06T09:03:55;100761.78;;;29.22;100.00
22872;BME280;11603;44.910;8.630;2022-07-06T09:06:25;100768.13;;;29.29;100.00
22872;BME280;11603;44.910;8.630;2022-07-06T09:08:54;100766.84;;;29.58;98.83
22872;BME280;11603;44.910;8.630;2022-07-06T09:11:23;100763.63;;;29.68;98.46
22872;BME280;11603;44.910;8.630;2022-07-06T09:13:51;100767.88;;;29.77;97.71
22872;BME280;11603;44.910;8.630;2022-07-06T09:16:17;100769.34;;;29.86;96.29
22872;BME280;11603;44.910;8.630;2022-07-06T09:18:46;100760.44;;;29.91;97.43
22872;BME280;11603;44.910;8.630;2022-07-06T09:21:22;100761.50;;;29.83;96.91
22872;BME280;11603;44.910;8.630;2022-07-06T09:23:53;100765.28;;;29.95;95.92
22872;BME280;11603;44.910;8.630;2022-07-06T09:26:19;100763.38;;;30.02;95.59
22872;BME280;11603;44.910;8.630;2022-07-06T09:28:45;100765.25;;;30.08;95.51
22872;BME280;11603;44.910;8.630;2022-07-06T09:31:11;100764.25;;;29.83;97.24
22872;BME280;11603;44.910;8.630;2022-07-06T09:33:37;100763.19;;;29.97;96.11
22872;BME280;11603;44.910;8.630;2022-07-06T09:36:04;100756.56;;;30.05;95.29
22872;BME280;11603;44.910;8.630;2022-07-06T09:38:31;100759.13;;;30.00;95.48
22872;BME280;11603;44.910;8.630;2022-07-06T09:40:57;100760.16;;;30.05;95.39
22872;BME280;11603;44.910;8.630;2022-07-06T09:43:23;100756.94;;;30.15;94.36
22872;BME280;11603;44.910;8.630;2022-07-06T09:45:55;100753.97;;;30.10;94.29
22872;BME280;11603;44.910;8.630;2022-07-06T09:48:23;100759.13;;;30.00;95.69
22872;BME280;11603;44.910;8.630;2022-07-06T09:51:01;100762.31;;;30.03;95.42
22872;BME280;11603;44.910;8.630;2022-07-06T09:53:28;100767.56;;;30.11;94.53
22872;BME280;11603;44.910;8.630;2022-07-06T09:55:55;100768.38;;;30.25;93.76
22872;BME280;11603;44.910;8.630;2022-07-06T09:58:24;100764.16;;;30.16;93.82
22872;BME280;11603;44.910;8.630;2022-07-06T10:00:50;100761.72;;;29.75;96.05
22872;BME280;11603;44.910;8.630;2022-07-06T10:03:19;100764.22;;;30.03;95.04
22872;BME280;11603;44.910;8.630;2022-07-06T10:05:46;100753.66;;;30.38;92.00
22872;BME280;11603;44.910;8.630;2022-07-06T10:08:13;100769.53;;;30.55;91.25
22872;BME280;11603;44.910;8.630;2022-07-06T10:10:41;100759.75;;;30.53;90.49
22872;BME280;11603;44.910;8.630;2022-07-06T10:13:08;100765.91;;;30.55;90.81
22872;BME280;11603;44.910;8.630;2022-07-06T10:15:39;100765.28;;;30.53;91.07
22872;BME280;11603;44.910;8.630;2022-07-06T10:18:09;100760.41;;;30.48;91.83
22872;BME280;11603;44.910;8.630;2022-07-06T10:20:37;100757.13;;;30.64;89.67
22872;BME280;11603;44.910;8.630;2022-07-06T10:23:05;100750.00;;;30.82;88.78
22872;BME280;11603;44.910;8.630;2022-07-06T10:25:32;100744.72;;;30.80;88.12
22872;BME280;11603;44.910;8.630;2022-07-06T10:27:59;100743.84;;;30.80;87.87
22872;BME280;11603;44.910;8.630;2022-07-06T10:30:25;100740.53;;;30.96;86.71
22872;BME280;11603;44.910;8.630;2022-07-06T10:32:52;100737.56;;;30.97;85.75
22872;BME280;11603;44.910;8.630;2022-07-06T10:35:20;100740.56;;;30.64;86.87
22872;BME280;11603;44.910;8.630;2022-07-06T10:37:46;100745.19;;;30.70;85.74
22872;BME280;11603;44.910;8.630;2022-07-06T10:40:34;100736.75;;;30.90;85.33
22872;BME280;11603;44.910;8.630;2022-07-06T10:43:18;100733.94;;;30.97;84.53
22872;BME280;11603;44.910;8.630;2022-07-06T10:53:10;100728.00;;;31.25;81.94
22872;BME280;11603;44.910;8.630;2022-07-06T10:55:38;100723.25;;;31.32;81.65
22872;BME280;11603;44.910;8.630;2022-07-06T10:58:05;100733.59;;;31.18;82.06
22872;BME280;11603;44.910;8.630;2022-07-06T11:06:22;100717.84;;;31.19;81.98
22872;BME280;11603;44.910;8.630;2022-07-06T11:08:52;100719.56;;;31.38;80.87
22872;BME280;11603;44.910;8.630;2022-07-06T11:16:29;100715.47;;;31.22;79.25
22872;BME280;11603;44.910;8.630;2022-07-06T11:19:11;100719.88;;;31.30;79.85
22872;BME280;11603;44.910;8.630;2022-07-06T11:21:48;100715.44;;;31.47;79.34
22872;BME280;11603;44.910;8.630;2022-07-06T11:24:23;100715.19;;;31.48;78.74
22872;BME280;11603;44.910;8.630;2022-07-06T11:26:50;100700.03;;;31.76;77.31
22872;BME280;11603;44.910;8.630;2022-07-06T11:29:18;100700.63;;;31.78;77.07
22872;BME280;11603;44.910;8.630;2022-07-06T11:31:47;100707.03;;;31.35;78.36
22872;BME280;11603;44.910;8.630;2022-07-06T11:34:24;100709.13;;;31.40;78.48
22872;BME280;11603;44.910;8.630;2022-07-06T11:37:02;100713.41;;;31.61;77.60
22872;BME280;11603;44.910;8.630;2022-07-06T11:39:30;100711.03;;;31.64;76.73
22872;BME280;11603;44.910;8.630;2022-07-06T11:41:56;100713.09;;;31.87;74.57
22872;BME280;11603;44.910;8.630;2022-07-06T11:44:22;100701.63;;;32.02;74.61
22872;BME280;11603;44.910;8.630;2022-07-06T11:46:48;100699.09;;;32.00;74.68
22872;BME280;11603;44.910;8.630;2022-07-06T11:49:14;100698.63;;;32.03;74.26
22872;BME280;11603;44.910;8.630;2022-07-06T11:51:41;100693.59;;;31.82;74.01
22872;BME280;11603;44.910;8.630;2022-07-06T11:54:09;100695.88;;;31.85;75.34
22872;BME280;11603;44.910;8.630;2022-07-06T11:56:36;100688.72;;;31.77;75.33
22872;BME280;11603;44.910;8.630;2022-07-06T11:59:02;100684.19;;;31.83;74.54
22872;BME280;11603;44.910;8.630;2022-07-06T12:01:29;100675.16;;;32.06;74.33
22872;BME280;11603;44.910;8.630;2022-07-06T12:04:00;100679.34;;;31.96;74.03
22872;BME280;11603;44.910;8.630;2022-07-06T12:06:27;100678.84;;;32.00;74.14
22872;BME280;11603;44.910;8.630;2022-07-06T12:09:00;100666.16;;;32.28;73.13
22872;BME280;11603;44.910;8.630;2022-07-06T12:11:31;100669.41;;;32.07;73.38
22872;BME280;11603;44.910;8.630;2022-07-06T12:13:59;100665.28;;;31.80;74.46
22872;BME280;11603;44.910;8.630;2022-07-06T12:16:36;100656.78;;;31.81;73.71
22872;BME280;11603;44.910;8.630;2022-07-06T12:19:05;100649.13;;;31.95;73.87
22872;BME280;11603;44.910;8.630;2022-07-06T12:21:31;100647.06;;;31.90;73.89
22872;BME280;11603;44.910;8.630;2022-07-06T12:23:58;100634.34;;;31.71;74.69
22872;BME280;11603;44.910;8.630;2022-07-06T12:26:26;100628.53;;;31.91;73.90
22872;BME280;11603;44.910;8.630;2022-07-06T12:29:06;100622.91;;;31.98;74.18
22872;BME280;11603;44.910;8.630;2022-07-06T12:31:40;100624.78;;;31.85;74.15
22872;BME280;11603;44.910;8.630;2022-07-06T12:34:13;100612.00;;;32.03;74.16
22872;BME280;11603;44.910;8.630;2022-07-06T12:39:17;100603.78;;;32.26;72.95
22872;BME280;11603;44.910;8.630;2022-07-06T12:41:51;100593.06;;;32.29;72.63
22872;BME280;11603;44.910;8.630;2022-07-06T12:44:21;100603.34;;;32.11;73.17
22872;BME280;11603;44.910;8.630;2022-07-06T12:46:49;100595.38;;;32.03;73.24
22872;BME280;11603;44.910;8.630;2022-07-06T12:49:21;100595.34;;;31.91;74.03
22872;BME280;11603;44.910;8.630;2022-07-06T12:54:15;100594.28;;;32.04;73.49
22872;BME280;11603;44.910;8.630;2022-07-06T12:59:34;100583.59;;;32.07;73.80
22872;BME280;11603;44.910;8.630;2022-07-06T13:02:00;100587.66;;;32.23;73.15
22872;BME280;11603;44.910;8.630;2022-07-06T13:04:28;100585.50;;;32.36;72.94
22872;BME280;11603;44.910;8.630;2022-07-06T13:06:54;100576.44;;;32.29;73.67
22872;BME280;11603;44.910;8.630;2022-07-06T13:09:21;100575.50;;;32.24;75.19
22872;BME280;11603;44.910;8.630;2022-07-06T13:11:48;100573.97;;;32.10;76.34